Creighton, South Dakota
Current Conditions -  °F | °C
As of 11:36 AM on Thursday 30 Oct 2014 (Local Time) from KPHP Reporting Station
Broken Clouds Broken Clouds  
Wind Chill: 45°   Ceiling: 2600
Heat Index: 49°   Visibility: 10mi
Dew Point: 34°   Wind: 9mph
Humidity: 56%   Direction: 360°N
Pressure: 30.34"   Gusts: NA
Location:  44.29°N, 102.14°W
Report Text: KPHP 301736Z AUTO 36008KT 10SM BKN026 09/01 A3034 RMK AO2 T00940011
Loading
Personal Weather Stations






























Interactive Weather Map
Tropical Storm Tracking
New forecast layout! Learn more

10-Day Weather Forecast

Advertisements
Track Severe Weather on mobile